createdAt,value
2018-03-17T00:00:26.616Z,25.80
2018-03-17T00:02:58.498Z,22.27
2018-03-17T00:05:30.391Z,21.27
2018-03-17T00:08:02.273Z,24.20
2018-03-17T00:10:34.912Z,21.47
2018-03-17T00:13:06.807Z,21.37
2018-03-17T00:15:38.696Z,20.33
2018-03-17T00:18:10.595Z,21.77
2018-03-17T00:20:42.479Z,20.47
2018-03-17T00:23:14.376Z,19.80
2018-03-17T00:25:46.873Z,23.03
2018-03-17T00:28:19.015Z,20.83
2018-03-17T00:30:50.896Z,24.00
2018-03-17T00:33:22.781Z,22.93
2018-03-17T00:35:54.649Z,23.13
2018-03-17T00:38:26.536Z,25.27
2018-03-17T00:40:59.183Z,23.67
2018-03-17T00:43:31.075Z,24.77
2018-03-17T00:46:03.702Z,22.33
2018-03-17T00:48:35.615Z,25.33
2018-03-17T00:51:08.267Z,26.10
2018-03-17T00:53:40.156Z,30.93
2018-03-17T00:56:12.811Z,28.23
2018-03-17T00:58:44.718Z,28.60
2018-03-17T01:01:16.595Z,28.03
2018-03-17T01:03:48.491Z,30.33
2018-03-17T01:06:20.369Z,25.80
2018-03-17T01:08:53.016Z,25.90
2018-03-17T01:11:24.914Z,26.33
2018-03-17T01:13:57.911Z,30.90
2018-03-17T01:16:30.614Z,24.53
2018-03-17T01:19:02.503Z,25.57
2018-03-17T01:21:34.386Z,29.43
2018-03-17T01:24:06.275Z,26.33
2018-03-17T01:26:38.175Z,27.90
2018-03-17T01:29:10.064Z,29.60
2018-03-17T01:31:41.937Z,30.57
2018-03-17T01:34:14.605Z,29.03
2018-03-17T01:36:47.240Z,31.13
2018-03-17T01:39:19.131Z,30.53
2018-03-17T01:41:51.013Z,30.83
2018-03-17T01:44:23.662Z,29.47
2018-03-17T01:46:55.767Z,29.83
2018-03-17T01:49:27.656Z,28.23
2018-03-17T01:51:59.530Z,27.80
2018-03-17T01:54:31.411Z,31.60
2018-03-17T01:57:03.291Z,29.20
2018-03-17T01:59:35.944Z,30.23
2018-03-17T02:02:07.819Z,32.07
2018-03-17T02:04:39.711Z,30.80
2018-03-17T02:07:11.595Z,30.27
2018-03-17T02:09:43.471Z,32.53
2018-03-17T02:12:16.115Z,30.87
2018-03-17T02:14:47.999Z,33.00
2018-03-17T02:17:19.876Z,32.93
2018-03-17T02:19:51.763Z,30.77
2018-03-17T02:22:24.402Z,30.27
2018-03-17T02:24:56.296Z,33.93
2018-03-17T02:27:28.177Z,32.80
2018-03-17T02:30:01.070Z,32.17
2018-03-17T02:32:32.943Z,31.63
2018-03-17T02:35:04.819Z,33.97
2018-03-17T02:37:36.700Z,32.00
2018-03-17T02:40:08.952Z,37.47
2018-03-17T02:42:41.084Z,31.80
2018-03-17T02:45:13.244Z,31.60
2018-03-17T02:47:45.124Z,36.63
2018-03-17T02:50:17.011Z,35.33
2018-03-17T02:52:48.893Z,34.03
2018-03-17T02:55:20.784Z,36.67
2018-03-17T02:57:53.419Z,38.27
2018-03-17T03:00:25.311Z,36.83
2018-03-17T03:02:57.952Z,38.57
2018-03-17T03:05:29.855Z,34.80
2018-03-17T03:08:01.737Z,34.97
2018-03-17T03:10:33.888Z,39.00
2018-03-17T03:13:06.259Z,36.57
2018-03-17T03:15:38.157Z,38.73
2018-03-17T03:18:10.287Z,36.97
2018-03-17T03:20:42.176Z,43.03
2018-03-17T03:23:14.087Z,40.27
2018-03-17T03:25:46.591Z,37.93
2018-03-17T03:28:18.461Z,40.37
2018-03-17T03:30:50.351Z,41.53
2018-03-17T03:33:22.220Z,40.20
2018-03-17T03:35:54.106Z,33.93
2018-03-17T03:38:26.735Z,40.70
2018-03-17T03:40:58.868Z,42.77
2018-03-17T03:43:30.731Z,39.80
2018-03-17T03:46:02.891Z,40.20
2018-03-17T03:48:34.765Z,45.90
2018-03-17T03:51:06.705Z,44.73
2018-03-17T03:53:38.575Z,44.57
2018-03-17T03:56:10.457Z,42.97
2018-03-17T03:58:42.338Z,38.67
2018-03-17T04:01:14.220Z,41.37
2018-03-17T04:03:46.090Z,42.00
2018-03-17T04:06:18.743Z,38.27
2018-03-17T04:08:50.615Z,35.03
2018-03-17T04:11:22.507Z,40.30
2018-03-17T04:13:55.143Z,36.73
2018-03-17T04:16:27.040Z,41.83
2018-03-17T04:18:59.684Z,40.93
2018-03-17T04:21:31.575Z,39.10
2018-03-17T04:24:04.215Z,39.90
2018-03-17T04:26:36.103Z,38.90
2018-03-17T04:29:09.017Z,35.20
2018-03-17T04:31:40.895Z,38.67
2018-03-17T04:34:12.777Z,37.50
2018-03-17T04:36:44.660Z,37.10
2018-03-17T04:39:16.527Z,41.63
2018-03-17T04:41:49.187Z,39.30
2018-03-17T04:44:21.062Z,36.80
2018-03-17T04:46:53.735Z,33.73
2018-03-17T04:49:25.948Z,35.43
2018-03-17T04:51:57.847Z,34.20
2018-03-17T04:54:30.061Z,32.77
2018-03-17T04:57:01.955Z,28.27
2018-03-17T04:59:33.835Z,29.40
2018-03-17T05:02:05.727Z,30.80
2018-03-17T05:04:38.375Z,32.87
2018-03-17T05:07:10.259Z,30.33
2018-03-17T05:09:42.897Z,27.43
2018-03-17T05:12:15.019Z,27.93
2018-03-17T05:14:47.189Z,27.80
2018-03-17T05:17:19.079Z,30.07
2018-03-17T05:19:50.962Z,30.70
2018-03-17T05:22:22.854Z,27.77
2018-03-17T05:24:55.490Z,24.73
2018-03-17T05:27:27.388Z,26.93
2018-03-17T05:30:00.025Z,26.23
2018-03-17T05:32:31.914Z,24.57
2018-03-17T05:35:04.555Z,27.23
2018-03-17T05:37:36.689Z,25.20
2018-03-17T05:40:08.573Z,24.97
2018-03-17T05:42:40.452Z,24.00
2018-03-17T05:45:12.572Z,25.90
2018-03-17T05:47:44.532Z,24.60
2018-03-17T05:50:17.176Z,21.30
2018-03-17T05:52:50.658Z,25.30
2018-03-17T05:55:22.538Z,22.70
2018-03-17T05:57:54.426Z,23.93
2018-03-17T06:00:27.081Z,24.00
2018-03-17T06:02:59.767Z,23.00
2018-03-17T06:05:32.435Z,26.03
2018-03-17T06:08:04.300Z,19.80
2018-03-17T06:10:36.978Z,19.80
2018-03-17T06:13:08.839Z,20.60
2018-03-17T06:15:41.491Z,18.77
2018-03-17T06:18:13.354Z,19.07
2018-03-17T06:20:45.239Z,23.00
2018-03-17T06:23:17.883Z,21.23
2018-03-17T06:25:49.795Z,18.77
2018-03-17T06:28:21.673Z,19.60
2018-03-17T06:30:53.567Z,20.40
2018-03-17T06:33:25.471Z,21.60
2018-03-17T06:35:58.193Z,20.03
2018-03-17T06:38:30.067Z,18.97
2018-03-17T06:41:01.985Z,20.10
2018-03-17T06:43:33.852Z,18.60
2018-03-17T06:46:05.758Z,20.23
2018-03-17T06:48:37.623Z,19.83
2018-03-17T06:51:09.518Z,19.27
2018-03-17T06:53:41.395Z,20.30
2018-03-17T06:56:13.291Z,20.37
2018-03-17T06:58:45.163Z,20.60
2018-03-17T07:01:17.060Z,23.30
2018-03-17T07:03:48.936Z,22.13
2018-03-17T07:06:21.127Z,22.40
2018-03-17T07:08:53.011Z,21.20
2018-03-17T07:11:24.906Z,23.43
2018-03-17T07:13:56.787Z,24.47
2018-03-17T07:16:28.689Z,22.00
2018-03-17T07:19:00.575Z,23.63
2018-03-17T07:21:33.521Z,20.37
2018-03-17T07:24:05.647Z,20.20
2018-03-17T07:26:37.543Z,19.43
2018-03-17T07:29:09.411Z,17.70
2018-03-17T07:31:41.594Z,17.57
2018-03-17T07:34:13.509Z,20.40
2018-03-17T07:36:45.417Z,20.13
2018-03-17T07:39:17.330Z,18.23
2018-03-17T07:41:49.471Z,16.93
2018-03-17T07:44:21.354Z,15.13
2018-03-17T07:46:53.497Z,15.10
2018-03-17T07:49:25.400Z,17.13
2018-03-17T07:51:57.308Z,16.23
2018-03-17T07:54:29.948Z,16.93
2018-03-17T07:57:01.844Z,15.27
2018-03-17T07:59:34.479Z,19.37
2018-03-17T08:02:06.394Z,15.33
2018-03-17T08:04:39.040Z,14.60
2018-03-17T08:07:10.955Z,14.93
2018-03-17T08:09:42.836Z,14.53
2018-03-17T08:12:14.962Z,14.13
2018-03-17T08:14:46.836Z,13.73
2018-03-17T08:17:18.751Z,15.77
2018-03-17T08:19:50.632Z,15.37
2018-03-17T08:22:23.360Z,14.83
2018-03-17T08:24:55.951Z,15.67
2018-03-17T08:27:27.852Z,16.03
2018-03-17T08:30:00.507Z,15.17
2018-03-17T08:32:32.405Z,15.43
2018-03-17T08:35:04.562Z,14.43
2018-03-17T08:37:36.476Z,16.23
2018-03-17T08:40:08.351Z,14.57
2018-03-17T08:42:40.282Z,14.40
2018-03-17T08:45:12.411Z,15.20
2018-03-17T08:47:44.310Z,16.47
2018-03-17T08:50:16.193Z,13.70
2018-03-17T08:52:48.107Z,14.13
2018-03-17T08:55:19.971Z,13.20
2018-03-17T08:57:51.879Z,13.87
2018-03-17T09:00:23.759Z,14.87
2018-03-17T09:02:56.499Z,14.40
2018-03-17T09:05:29.144Z,14.43
2018-03-17T09:08:01.028Z,13.20
2018-03-17T09:10:33.157Z,12.80
2018-03-17T09:13:05.073Z,14.17
2018-03-17T09:15:37.201Z,13.07
2018-03-17T09:18:09.090Z,15.97
2018-03-17T09:20:40.980Z,15.73
2018-03-17T09:23:13.655Z,17.73
2018-03-17T09:25:45.526Z,13.00
2018-03-17T09:28:18.179Z,15.47
2018-03-17T09:30:50.388Z,14.13
2018-03-17T09:33:22.285Z,13.43
2018-03-17T09:35:54.227Z,15.93
2018-03-17T09:38:26.138Z,13.47
2018-03-17T09:40:58.341Z,12.37
2018-03-17T09:43:30.254Z,11.83
2018-03-17T09:46:02.129Z,16.33
2018-03-17T09:48:34.012Z,13.07
2018-03-17T09:51:05.895Z,12.33
2018-03-17T09:53:37.787Z,12.87
2018-03-17T09:56:09.660Z,13.77
2018-03-17T09:58:41.575Z,13.10
2018-03-17T10:01:13.476Z,12.73
2018-03-17T10:03:45.368Z,13.87
2018-03-17T10:06:18.004Z,16.87
2018-03-17T10:08:50.237Z,11.60
2018-03-17T10:11:22.388Z,13.63
2018-03-17T10:13:54.291Z,14.13
2018-03-17T10:16:26.163Z,11.20
2018-03-17T10:18:58.051Z,11.40
2018-03-17T10:21:30.727Z,12.17
2018-03-17T10:24:03.387Z,13.20
2018-03-17T10:26:35.263Z,10.70
2018-03-17T10:29:07.925Z,14.93
2018-03-17T10:31:40.028Z,11.43
2018-03-17T10:34:12.195Z,12.83
2018-03-17T10:36:44.383Z,11.80
2018-03-17T10:39:16.268Z,12.50
2018-03-17T10:41:48.436Z,11.60
2018-03-17T10:44:20.319Z,12.37
2018-03-17T10:46:52.186Z,11.10
2018-03-17T10:49:25.094Z,16.93
2018-03-17T10:51:56.980Z,15.67
2018-03-17T10:54:28.879Z,11.43
2018-03-17T10:57:00.765Z,12.07
2018-03-17T10:59:33.411Z,11.13
2018-03-17T11:02:05.278Z,12.60
2018-03-17T11:04:37.171Z,12.90
2018-03-17T11:07:09.043Z,12.40
2018-03-17T11:09:40.964Z,11.50
2018-03-17T11:12:12.840Z,14.63
2018-03-17T11:14:45.551Z,12.03
2018-03-17T11:17:17.428Z,14.30
2018-03-17T11:19:49.330Z,10.93
2018-03-17T11:22:22.058Z,11.47
2018-03-17T11:24:54.201Z,15.87
2018-03-17T11:27:26.095Z,12.97
2018-03-17T11:29:58.369Z,11.13
2018-03-17T11:32:30.503Z,14.20
2018-03-17T11:35:02.393Z,14.13
2018-03-17T11:37:35.295Z,13.03
2018-03-17T11:40:08.150Z,12.30
2018-03-17T11:42:40.013Z,16.00
2018-03-17T11:45:11.939Z,20.00
2018-03-17T11:47:43.835Z,12.90
2018-03-17T11:50:15.731Z,11.63
2018-03-17T11:52:47.614Z,12.23
2018-03-17T11:55:20.263Z,13.43
2018-03-17T11:57:52.156Z,10.07
2018-03-17T12:00:24.061Z,13.23
2018-03-17T12:02:56.386Z,12.63
2018-03-17T12:05:28.282Z,10.60
2018-03-17T12:08:00.155Z,9.13
2018-03-17T12:10:32.051Z,13.30
2018-03-17T12:13:04.695Z,13.57
2018-03-17T12:15:36.750Z,17.50
2018-03-17T12:18:08.680Z,12.30
2018-03-17T12:20:40.575Z,12.93
2018-03-17T12:23:12.955Z,11.70
2018-03-17T12:25:44.843Z,12.30
2018-03-17T12:28:17.980Z,10.60
2018-03-17T12:30:49.869Z,12.93
2018-03-17T12:33:21.832Z,13.60
2018-03-17T12:35:53.922Z,14.83
2018-03-17T12:38:27.087Z,13.27
2018-03-17T12:40:59.237Z,15.57
2018-03-17T12:43:31.110Z,12.33
2018-03-17T12:46:03.004Z,12.73
2018-03-17T12:48:36.280Z,11.70
2018-03-17T12:51:08.954Z,14.30
2018-03-17T12:53:40.865Z,13.20
2018-03-17T12:56:13.191Z,12.70
2018-03-17T12:58:45.085Z,10.63
2018-03-17T13:01:16.980Z,13.13
2018-03-17T13:03:49.226Z,12.57
2018-03-17T13:06:21.851Z,13.37
2018-03-17T13:08:53.731Z,12.30
2018-03-17T13:11:26.241Z,14.17
2018-03-17T13:13:58.115Z,13.60
2018-03-17T13:16:30.008Z,14.63
2018-03-17T13:19:01.902Z,13.17
2018-03-17T13:21:34.354Z,13.03
2018-03-17T13:24:08.886Z,17.00
2018-03-17T13:26:41.777Z,20.43
2018-03-17T13:29:13.702Z,13.20
2018-03-17T13:31:46.679Z,12.07
2018-03-17T13:34:18.575Z,15.30
2018-03-17T13:37:03.149Z,12.43
2018-03-17T13:39:35.309Z,13.43
2018-03-17T13:42:07.344Z,14.37
2018-03-17T13:44:39.220Z,16.43
2018-03-17T13:47:12.115Z,14.67
2018-03-17T13:49:43.984Z,13.83
2018-03-17T13:52:17.068Z,14.17
2018-03-17T13:54:49.236Z,13.93
2018-03-17T13:57:21.128Z,12.83
2018-03-17T13:59:53.118Z,12.87
2018-03-17T14:02:25.003Z,15.47
2018-03-17T14:04:57.638Z,13.93
2018-03-17T14:07:29.527Z,14.60
2018-03-17T14:10:02.202Z,13.57
2018-03-17T14:12:34.132Z,14.07
2018-03-17T14:15:06.019Z,16.37
2018-03-17T14:17:37.935Z,14.53
2018-03-17T14:20:09.807Z,14.80
2018-03-17T14:22:41.699Z,12.20
2018-03-17T14:25:13.572Z,15.80
2018-03-17T14:27:46.475Z,14.00
2018-03-17T14:30:18.412Z,15.77
2018-03-17T14:32:50.258Z,12.73
2018-03-17T14:35:22.470Z,14.10
2018-03-17T14:37:54.354Z,14.60
2018-03-17T14:40:26.230Z,13.33
2018-03-17T14:42:58.127Z,15.37
2018-03-17T14:45:30.809Z,18.70
2018-03-17T14:48:03.458Z,13.73
2018-03-17T14:50:35.347Z,13.47
2018-03-17T14:53:08.000Z,14.17
2018-03-17T14:55:40.099Z,15.37
2018-03-17T14:58:11.992Z,13.93
2018-03-17T15:00:43.867Z,19.53
2018-03-17T15:03:15.776Z,12.13
2018-03-17T15:05:48.490Z,12.33
2018-03-17T15:08:20.381Z,14.43
2018-03-17T15:10:52.259Z,16.17
2018-03-17T15:13:24.157Z,14.80
2018-03-17T15:15:56.035Z,12.87
2018-03-17T15:18:27.934Z,13.10
2018-03-17T15:20:59.816Z,14.30
2018-03-17T15:23:32.480Z,12.43
2018-03-17T15:26:05.122Z,14.90
2018-03-17T15:28:37.814Z,14.17
2018-03-17T15:31:09.702Z,17.93
2018-03-17T15:33:42.360Z,12.87
2018-03-17T15:36:14.239Z,14.27
2018-03-17T15:38:47.142Z,13.53
2018-03-17T15:41:19.036Z,12.63
2018-03-17T15:43:50.991Z,14.90
2018-03-17T15:46:22.891Z,14.40
2018-03-17T15:48:54.782Z,14.80
2018-03-17T15:51:26.662Z,15.63
2018-03-17T15:53:58.556Z,16.43
2018-03-17T15:56:30.448Z,13.80
2018-03-17T15:59:03.103Z,19.40
2018-03-17T16:01:34.999Z,13.97
2018-03-17T16:04:06.896Z,16.97
2018-03-17T16:06:38.780Z,13.40
2018-03-17T16:09:10.667Z,12.67
2018-03-17T16:11:43.319Z,16.63
2018-03-17T16:14:15.523Z,17.27
2018-03-17T16:16:47.428Z,19.23
2018-03-17T16:19:19.360Z,14.90
2018-03-17T16:21:51.232Z,13.53
2018-03-17T16:24:23.119Z,13.07
2018-03-17T16:26:55.020Z,17.23
2018-03-17T16:29:28.017Z,14.23
2018-03-17T16:31:59.887Z,14.77
2018-03-17T16:34:32.049Z,12.60
2018-03-17T16:37:03.916Z,17.80
2018-03-17T16:39:35.812Z,14.23
2018-03-17T16:42:07.925Z,17.00
2018-03-17T16:44:39.809Z,15.90
2018-03-17T16:47:11.690Z,14.53
2018-03-17T16:49:43.578Z,15.97
2018-03-17T16:52:16.234Z,13.27
2018-03-17T16:54:48.135Z,13.70
2018-03-17T16:57:20.775Z,12.67
2018-03-17T16:59:52.691Z,14.77
2018-03-17T17:02:24.775Z,13.77
2018-03-17T17:04:56.685Z,12.10
2018-03-17T17:07:28.547Z,13.50
2018-03-17T17:10:01.204Z,14.07
2018-03-17T17:12:33.076Z,15.17
2018-03-17T17:15:05.272Z,13.43
2018-03-17T17:17:37.164Z,12.50
2018-03-17T17:20:09.065Z,11.73
2018-03-17T17:22:40.935Z,13.03
2018-03-17T17:25:13.624Z,13.67
2018-03-17T17:27:46.304Z,14.23
2018-03-17T17:30:18.229Z,15.17
2018-03-17T17:32:50.298Z,12.50
2018-03-17T17:35:22.406Z,14.43
2018-03-17T17:37:54.286Z,14.63
2018-03-17T17:40:26.167Z,13.80
2018-03-17T17:42:58.055Z,14.17
2018-03-17T17:45:29.957Z,15.67
2018-03-17T17:48:01.838Z,12.90
2018-03-17T17:50:33.732Z,12.43
2018-03-17T17:53:05.620Z,10.53
2018-03-17T17:55:38.319Z,15.27
2018-03-17T17:58:10.210Z,13.07
2018-03-17T18:00:42.146Z,14.47
2018-03-17T18:03:14.014Z,12.87
2018-03-17T18:05:46.316Z,16.80
2018-03-17T18:08:18.198Z,14.40
2018-03-17T18:10:50.856Z,13.33
2018-03-17T18:13:22.759Z,14.80
2018-03-17T18:15:54.649Z,14.23
2018-03-17T18:18:26.532Z,14.00
2018-03-17T18:20:58.425Z,14.57
2018-03-17T18:23:31.068Z,14.20
2018-03-17T18:26:03.003Z,14.77
2018-03-17T18:28:35.142Z,16.63
2018-03-17T18:31:07.053Z,16.20
2018-03-17T18:33:38.942Z,19.70
2018-03-17T18:36:11.599Z,13.40
2018-03-17T18:38:43.703Z,14.83
2018-03-17T18:41:15.592Z,14.60
2018-03-17T18:43:47.534Z,18.80
2018-03-17T18:46:19.388Z,17.37
2018-03-17T18:48:51.550Z,16.10
2018-03-17T18:51:23.447Z,14.33
2018-03-17T18:53:55.320Z,14.53
2018-03-17T18:56:27.424Z,14.63
2018-03-17T18:58:59.869Z,14.40
2018-03-17T19:01:31.760Z,15.90
2018-03-17T19:04:04.646Z,14.70
2018-03-17T19:06:36.818Z,14.20
2018-03-17T19:09:08.990Z,16.63
2018-03-17T19:11:40.880Z,14.20
2018-03-17T19:14:13.107Z,15.43
2018-03-17T19:16:45.004Z,16.73
2018-03-17T19:19:17.131Z,18.57
2018-03-17T19:21:49.299Z,14.87
2018-03-17T19:24:21.244Z,15.77
2018-03-17T19:26:53.955Z,17.23
2018-03-17T19:29:25.792Z,16.13
2018-03-17T19:31:58.687Z,17.97
2018-03-17T19:34:30.591Z,13.53
2018-03-17T19:37:02.496Z,17.43
2018-03-17T19:39:35.393Z,17.53
2018-03-17T19:42:07.285Z,14.43
2018-03-17T19:44:39.415Z,12.87
2018-03-17T19:47:11.311Z,17.23
2018-03-17T19:49:43.207Z,17.57
2018-03-17T19:52:15.099Z,15.93
2018-03-17T19:54:46.971Z,15.23
2018-03-17T19:57:18.855Z,15.63
2018-03-17T19:59:50.737Z,15.03
2018-03-17T20:02:22.628Z,15.40
2018-03-17T20:04:55.268Z,17.50
2018-03-17T20:07:27.200Z,16.13
2018-03-17T20:09:59.123Z,15.80
2018-03-17T20:12:31.779Z,15.57
2018-03-17T20:15:03.655Z,16.60
2018-03-17T20:17:36.561Z,16.53
2018-03-17T20:20:08.448Z,15.13
2018-03-17T20:22:40.331Z,14.00
2018-03-17T20:25:12.222Z,16.97
2018-03-17T20:27:45.119Z,14.70
2018-03-17T20:30:16.995Z,13.67
2018-03-17T20:32:50.144Z,16.63
2018-03-17T20:35:22.024Z,14.43
2018-03-17T20:37:55.047Z,16.53
2018-03-17T20:40:26.925Z,18.47
2018-03-17T20:42:58.821Z,14.67
2018-03-17T20:45:31.479Z,14.77
2018-03-17T20:48:03.376Z,16.93
2018-03-17T20:50:35.268Z,19.30
2018-03-17T20:53:07.214Z,16.77
2018-03-17T20:55:39.091Z,13.57
2018-03-17T20:58:11.225Z,17.37
2018-03-17T21:00:43.132Z,16.67
2018-03-17T21:03:15.028Z,22.63
2018-03-17T21:05:47.664Z,16.33
2018-03-17T21:08:19.559Z,18.33
2018-03-17T21:10:51.427Z,16.37
2018-03-17T21:13:24.081Z,15.50
2018-03-17T21:15:55.963Z,13.13
2018-03-17T21:18:29.058Z,16.67
2018-03-17T21:21:01.712Z,17.43
2018-03-17T21:23:33.596Z,18.07
2018-03-17T21:26:06.327Z,16.80
2018-03-17T21:28:38.207Z,14.93
2018-03-17T21:31:10.161Z,17.00
2018-03-17T21:33:42.076Z,17.67
2018-03-17T21:36:13.947Z,16.93
2018-03-17T21:38:45.861Z,17.10
2018-03-17T21:41:17.747Z,14.07
2018-03-17T21:43:49.635Z,15.60
2018-03-17T21:46:21.804Z,16.47
2018-03-17T21:48:53.876Z,17.30
2018-03-17T21:51:25.881Z,17.37
2018-03-17T21:53:58.551Z,18.17
2018-03-17T21:56:30.428Z,17.87
2018-03-17T21:59:03.885Z,18.27
2018-03-17T22:01:37.536Z,19.10
2018-03-17T22:04:09.444Z,16.77
2018-03-17T22:06:41.568Z,19.37
2018-03-17T22:09:13.512Z,19.43
2018-03-17T22:11:47.584Z,17.50
2018-03-17T22:14:19.471Z,15.20
